sensor_id;sensor_type;location;lat;lon;timestamp;temperature;humidity
33761;DHT22;20084;47.912;19.044;2024-03-23T00:53:47;9.40;99.90
33761;DHT22;20084;47.912;19.044;2024-03-23T00:56:13;9.50;99.90
33761;DHT22;20084;47.912;19.044;2024-03-23T00:58:38;9.50;99.90
33761;DHT22;20084;47.912;19.044;2024-03-23T01:01:04;9.60;99.90
33761;DHT22;20084;47.912;19.044;2024-03-23T01:03:30;9.60;99.90
33761;DHT22;20084;47.912;19.044;2024-03-23T01:06:00;9.40;99.90
33761;DHT22;20084;47.912;19.044;2024-03-23T01:08:25;9.30;99.90
33761;DHT22;20084;47.912;19.044;2024-03-23T01:10:58;9.30;99.90
33761;DHT22;20084;47.912;19.044;2024-03-23T01:13:24;9.30;99.90
33761;DHT22;20084;47.912;19.044;2024-03-23T01:15:50;9.40;99.90
33761;DHT22;20084;47.912;19.044;2024-03-23T01:18:17;9.40;99.90
33761;DHT22;20084;47.912;19.044;2024-03-23T01:20:43;9.50;99.90
33761;DHT22;20084;47.912;19.044;2024-03-23T01:23:09;9.60;99.90
33761;DHT22;20084;47.912;19.044;2024-03-23T01:25:34;9.60;99.90
33761;DHT22;20084;47.912;19.044;2024-03-23T01:28:00;9.70;99.90
33761;DHT22;20084;47.912;19.044;2024-03-23T01:30:25;9.80;99.90
33761;DHT22;20084;47.912;19.044;2024-03-23T01:32:51;9.70;99.90
33761;DHT22;20084;47.912;19.044;2024-03-23T01:35:17;9.60;99.90
33761;DHT22;20084;47.912;19.044;2024-03-23T01:37:42;9.60;99.90
33761;DHT22;20084;47.912;19.044;2024-03-23T01:40:08;9.50;99.90
33761;DHT22;20084;47.912;19.044;2024-03-23T01:42:34;9.60;99.90
33761;DHT22;20084;47.912;19.044;2024-03-23T01:45:00;9.70;99.90
33761;DHT22;20084;47.912;19.044;2024-03-23T01:47:25;9.60;99.90
33761;DHT22;20084;47.912;19.044;2024-03-23T01:49:51;9.50;99.90
33761;DHT22;20084;47.912;19.044;2024-03-23T01:52:17;9.20;99.90
33761;DHT22;20084;47.912;19.044;2024-03-23T01:54:43;9.10;99.90
33761;DHT22;20084;47.912;19.044;2024-03-23T01:57:10;9.10;99.90
33761;DHT22;20084;47.912;19.044;2024-03-23T01:59:37;9.00;99.90
33761;DHT22;20084;47.912;19.044;2024-03-23T02:02:03;9.00;99.90
33761;DHT22;20084;47.912;19.044;2024-03-23T02:04:29;8.90;99.90
33761;DHT22;20084;47.912;19.044;2024-03-23T02:06:54;8.90;99.90
33761;DHT22;20084;47.912;19.044;2024-03-23T02:09:20;8.90;99.90
33761;DHT22;20084;47.912;19.044;2024-03-23T02:11:45;8.90;99.90
33761;DHT22;20084;47.912;19.044;2024-03-23T02:14:11;8.80;99.90
33761;DHT22;20084;47.912;19.044;2024-03-23T02:16:37;8.80;99.90
33761;DHT22;20084;47.912;19.044;2024-03-23T02:19:02;9.00;99.90
33761;DHT22;20084;47.912;19.044;2024-03-23T02:21:28;9.10;99.90
33761;DHT22;20084;47.912;19.044;2024-03-23T02:23:58;9.00;99.90
33761;DHT22;20084;47.912;19.044;2024-03-23T02:26:24;9.10;99.90
33761;DHT22;20084;47.912;19.044;2024-03-23T02:28:49;9.20;99.90
33761;DHT22;20084;47.912;19.044;2024-03-23T02:31:15;9.30;99.90
33761;DHT22;20084;47.912;19.044;2024-03-23T02:33:41;9.20;99.90
33761;DHT22;20084;47.912;19.044;2024-03-23T02:36:06;9.20;99.90
33761;DHT22;20084;47.912;19.044;2024-03-23T02:38:32;9.20;99.90
33761;DHT22;20084;47.912;19.044;2024-03-23T02:41:07;9.30;99.90
33761;DHT22;20084;47.912;19.044;2024-03-23T02:43:32;9.40;99.90
33761;DHT22;20084;47.912;19.044;2024-03-23T02:45:58;9.40;99.90
33761;DHT22;20084;47.912;19.044;2024-03-23T02:48:24;9.40;99.90
33761;DHT22;20084;47.912;19.044;2024-03-23T02:50:49;9.50;99.90
33761;DHT22;20084;47.912;19.044;2024-03-23T02:53:17;9.50;99.90
33761;DHT22;20084;47.912;19.044;2024-03-23T02:55:43;9.40;99.90
33761;DHT22;20084;47.912;19.044;2024-03-23T02:58:08;9.30;99.90
33761;DHT22;20084;47.912;19.044;2024-03-23T03:00:34;9.40;99.90
33761;DHT22;20084;47.912;19.044;2024-03-23T03:02:59;9.50;99.90
33761;DHT22;20084;47.912;19.044;2024-03-23T03:05:25;9.60;99.90
33761;DHT22;20084;47.912;19.044;2024-03-23T03:07:50;9.50;99.90
33761;DHT22;20084;47.912;19.044;2024-03-23T03:10:16;9.40;99.90
33761;DHT22;20084;47.912;19.044;2024-03-23T03:12:42;9.40;99.90
33761;DHT22;20084;47.912;19.044;2024-03-23T03:15:08;9.40;99.90
33761;DHT22;20084;47.912;19.044;2024-03-23T03:17:34;9.50;99.90
33761;DHT22;20084;47.912;19.044;2024-03-23T03:20:00;9.60;99.90
33761;DHT22;20084;47.912;19.044;2024-03-23T03:22:25;9.80;99.90
33761;DHT22;20084;47.912;19.044;2024-03-23T03:24:51;9.80;99.90
33761;DHT22;20084;47.912;19.044;2024-03-23T03:27:17;9.90;99.90
33761;DHT22;20084;47.912;19.044;2024-03-23T03:29:42;10.00;99.90
33761;DHT22;20084;47.912;19.044;2024-03-23T03:32:08;10.10;99.90
33761;DHT22;20084;47.912;19.044;2024-03-23T03:34:34;10.20;99.90
33761;DHT22;20084;47.912;19.044;2024-03-23T03:37:00;10.30;99.90
33761;DHT22;20084;47.912;19.044;2024-03-23T03:39:26;10.30;99.90
33761;DHT22;20084;47.912;19.044;2024-03-23T03:41:52;10.40;99.90
33761;DHT22;20084;47.912;19.044;2024-03-23T03:44:18;10.50;99.90
33761;DHT22;20084;47.912;19.044;2024-03-23T03:46:43;10.50;99.90
33761;DHT22;20084;47.912;19.044;2024-03-23T03:49:09;10.50;99.90
33761;DHT22;20084;47.912;19.044;2024-03-23T03:51:35;10.60;99.90
33761;DHT22;20084;47.912;19.044;2024-03-23T03:54:00;10.60;99.90
33761;DHT22;20084;47.912;19.044;2024-03-23T03:56:26;10.50;99.90
33761;DHT22;20084;47.912;19.044;2024-03-23T03:58:53;10.20;99.90
33761;DHT22;20084;47.912;19.044;2024-03-23T04:01:18;10.10;99.90
33761;DHT22;20084;47.912;19.044;2024-03-23T04:03:44;9.90;99.90
33761;DHT22;20084;47.912;19.044;2024-03-23T04:06:10;9.70;99.90
33761;DHT22;20084;47.912;19.044;2024-03-23T04:08:35;9.40;99.90
33761;DHT22;20084;47.912;19.044;2024-03-23T04:11:01;9.40;99.90
33761;DHT22;20084;47.912;19.044;2024-03-23T04:13:27;9.50;99.90
33761;DHT22;20084;47.912;19.044;2024-03-23T04:15:56;9.70;99.90
33761;DHT22;20084;47.912;19.044;2024-03-23T04:18:22;9.80;99.90
33761;DHT22;20084;47.912;19.044;2024-03-23T04:20:49;9.90;99.90
33761;DHT22;20084;47.912;19.044;2024-03-23T04:23:15;9.90;99.90
33761;DHT22;20084;47.912;19.044;2024-03-23T04:25:40;9.80;99.90
33761;DHT22;20084;47.912;19.044;2024-03-23T04:28:06;9.90;99.90
33761;DHT22;20084;47.912;19.044;2024-03-23T04:30:32;10.00;99.90
33761;DHT22;20084;47.912;19.044;2024-03-23T04:32:58;10.10;99.90
33761;DHT22;20084;47.912;19.044;2024-03-23T04:35:24;10.10;99.90
33761;DHT22;20084;47.912;19.044;2024-03-23T04:37:55;10.00;99.90
33761;DHT22;20084;47.912;19.044;2024-03-23T04:40:21;9.90;99.90
33761;DHT22;20084;47.912;19.044;2024-03-23T04:42:47;9.70;99.90
33761;DHT22;20084;47.912;19.044;2024-03-23T04:45:13;9.60;99.90
33761;DHT22;20084;47.912;19.044;2024-03-23T04:47:38;9.40;99.90
33761;DHT22;20084;47.912;19.044;2024-03-23T04:50:04;9.30;99.90
33761;DHT22;20084;47.912;19.044;2024-03-23T04:52:30;9.20;99.90
33761;DHT22;20084;47.912;19.044;2024-03-23T04:54:56;9.40;99.90
33761;DHT22;20084;47.912;19.044;2024-03-23T04:57:22;9.50;99.90
33761;DHT22;20084;47.912;19.044;2024-03-23T04:59:48;9.70;99.90
33761;DHT22;20084;47.912;19.044;2024-03-23T05:02:14;9.60;99.90
33761;DHT22;20084;47.912;19.044;2024-03-23T05:04:40;9.20;99.90
33761;DHT22;20084;47.912;19.044;2024-03-23T05:07:08;9.00;99.90
33761;DHT22;20084;47.912;19.044;2024-03-23T05:09:34;8.90;99.90
33761;DHT22;20084;47.912;19.044;2024-03-23T05:12:00;9.00;99.90
33761;DHT22;20084;47.912;19.044;2024-03-23T05:14:26;9.00;99.90
33761;DHT22;20084;47.912;19.044;2024-03-23T05:16:54;9.00;99.90
33761;DHT22;20084;47.912;19.044;2024-03-23T05:19:21;9.10;99.90
33761;DHT22;20084;47.912;19.044;2024-03-23T05:21:47;9.10;99.90
33761;DHT22;20084;47.912;19.044;2024-03-23T05:24:13;9.20;99.90
33761;DHT22;20084;47.912;19.044;2024-03-23T05:26:38;9.20;99.90
33761;DHT22;20084;47.912;19.044;2024-03-23T05:29:04;9.30;99.90
33761;DHT22;20084;47.912;19.044;2024-03-23T05:31:32;9.30;99.90
33761;DHT22;20084;47.912;19.044;2024-03-23T05:33:58;9.30;99.90
33761;DHT22;20084;47.912;19.044;2024-03-23T05:36:23;9.40;99.90
33761;DHT22;20084;47.912;19.044;2024-03-23T05:38:52;9.50;99.90
33761;DHT22;20084;47.912;19.044;2024-03-23T05:41:17;9.50;99.90
33761;DHT22;20084;47.912;19.044;2024-03-23T05:43:43;9.70;99.90
33761;DHT22;20084;47.912;19.044;2024-03-23T05:46:09;9.70;99.90
33761;DHT22;20084;47.912;19.044;2024-03-23T05:48:35;9.70;99.90
33761;DHT22;20084;47.912;19.044;2024-03-23T05:51:01;9.70;99.90
33761;DHT22;20084;47.912;19.044;2024-03-23T05:53:27;9.60;99.90
33761;DHT22;20084;47.912;19.044;2024-03-23T05:56:04;9.60;99.90
33761;DHT22;20084;47.912;19.044;2024-03-23T05:58:30;9.70;99.90
33761;DHT22;20084;47.912;19.044;2024-03-23T06:00:59;9.70;99.90
33761;DHT22;20084;47.912;19.044;2024-03-23T06:03:25;9.70;99.90
33761;DHT22;20084;47.912;19.044;2024-03-23T06:05:51;9.70;99.90
33761;DHT22;20084;47.912;19.044;2024-03-23T06:08:18;9.70;99.90
33761;DHT22;20084;47.912;19.044;2024-03-23T06:10:47;9.80;99.90
33761;DHT22;20084;47.912;19.044;2024-03-23T06:13:13;9.80;99.90
33761;DHT22;20084;47.912;19.044;2024-03-23T06:15:39;9.80;99.90
33761;DHT22;20084;47.912;19.044;2024-03-23T06:18:05;9.80;99.90
33761;DHT22;20084;47.912;19.044;2024-03-23T06:20:33;9.80;99.90
33761;DHT22;20084;47.912;19.044;2024-03-23T06:22:59;9.80;99.90
33761;DHT22;20084;47.912;19.044;2024-03-23T06:25:25;9.90;99.90
33761;DHT22;20084;47.912;19.044;2024-03-23T06:27:51;10.00;99.90
33761;DHT22;20084;47.912;19.044;2024-03-23T06:30:16;10.10;99.90
33761;DHT22;20084;47.912;19.044;2024-03-23T06:32:42;10.30;99.90
33761;DHT22;20084;47.912;19.044;2024-03-23T06:35:08;10.30;99.90
33761;DHT22;20084;47.912;19.044;2024-03-23T06:37:36;10.50;99.90
33761;DHT22;20084;47.912;19.044;2024-03-23T06:40:01;10.60;99.90
33761;DHT22;20084;47.912;19.044;2024-03-23T06:42:27;10.70;99.90
33761;DHT22;20084;47.912;19.044;2024-03-23T06:44:53;10.70;99.90
33761;DHT22;20084;47.912;19.044;2024-03-23T06:47:19;10.70;99.90
33761;DHT22;20084;47.912;19.044;2024-03-23T06:49:44;10.80;99.90
33761;DHT22;20084;47.912;19.044;2024-03-23T06:52:10;10.90;99.90
33761;DHT22;20084;47.912;19.044;2024-03-23T06:54:36;10.90;99.90
33761;DHT22;20084;47.912;19.044;2024-03-23T06:57:01;11.10;99.90
33761;DHT22;20084;47.912;19.044;2024-03-23T06:59:27;11.10;99.90
33761;DHT22;20084;47.912;19.044;2024-03-23T07:01:52;11.10;99.90
33761;DHT22;20084;47.912;19.044;2024-03-23T07:04:18;11.00;99.90
33761;DHT22;20084;47.912;19.044;2024-03-23T07:06:44;11.00;99.90
33761;DHT22;20084;47.912;19.044;2024-03-23T07:09:11;11.00;99.90
33761;DHT22;20084;47.912;19.044;2024-03-23T07:11:37;11.10;99.90
33761;DHT22;20084;47.912;19.044;2024-03-23T07:14:02;11.20;99.90
33761;DHT22;20084;47.912;19.044;2024-03-23T07:16:29;11.30;99.90
33761;DHT22;20084;47.912;19.044;2024-03-23T07:18:54;11.40;99.90
33761;DHT22;20084;47.912;19.044;2024-03-23T07:21:21;11.60;99.90
33761;DHT22;20084;47.912;19.044;2024-03-23T07:23:46;11.60;99.90
33761;DHT22;20084;47.912;19.044;2024-03-23T07:26:12;11.60;99.90
33761;DHT22;20084;47.912;19.044;2024-03-23T07:28:38;11.70;99.90
33761;DHT22;20084;47.912;19.044;2024-03-23T07:31:11;11.70;99.90
33761;DHT22;20084;47.912;19.044;2024-03-23T07:33:41;11.80;99.90
33761;DHT22;20084;47.912;19.044;2024-03-23T07:36:07;11.90;99.90
33761;DHT22;20084;47.912;19.044;2024-03-23T07:38:33;12.00;99.90
33761;DHT22;20084;47.912;19.044;2024-03-23T07:41:08;11.90;99.90
33761;DHT22;20084;47.912;19.044;2024-03-23T07:43:34;11.80;99.90
33761;DHT22;20084;47.912;19.044;2024-03-23T07:46:00;11.70;99.90
33761;DHT22;20084;47.912;19.044;2024-03-23T07:48:26;11.60;99.90
33761;DHT22;20084;47.912;19.044;2024-03-23T07:51:10;11.60;99.90
33761;DHT22;20084;47.912;19.044;2024-03-23T07:53:37;11.60;99.90
33761;DHT22;20084;47.912;19.044;2024-03-23T07:56:06;11.70;99.90
33761;DHT22;20084;47.912;19.044;2024-03-23T07:58:31;11.80;99.90
33761;DHT22;20084;47.912;19.044;2024-03-23T08:01:04;11.80;99.90
33761;DHT22;20084;47.912;19.044;2024-03-23T08:03:30;11.80;99.90
33761;DHT22;20084;47.912;19.044;2024-03-23T08:05:56;11.80;99.90
33761;DHT22;20084;47.912;19.044;2024-03-23T08:08:21;12.00;99.90
33761;DHT22;20084;47.912;19.044;2024-03-23T08:10:50;12.20;99.90
33761;DHT22;20084;47.912;19.044;2024-03-23T08:13:17;12.30;99.90
33761;DHT22;20084;47.912;19.044;2024-03-23T08:15:43;12.20;99.90
33761;DHT22;20084;47.912;19.044;2024-03-23T08:18:10;12.20;99.90
33761;DHT22;20084;47.912;19.044;2024-03-23T08:20:36;12.40;99.90
33761;DHT22;20084;47.912;19.044;2024-03-23T08:23:01;12.50;99.90
33761;DHT22;20084;47.912;19.044;2024-03-23T08:25:30;12.70;99.90
33761;DHT22;20084;47.912;19.044;2024-03-23T08:27:56;12.80;99.90
33761;DHT22;20084;47.912;19.044;2024-03-23T08:30:21;12.80;99.90
33761;DHT22;20084;47.912;19.044;2024-03-23T08:32:47;12.90;99.90
33761;DHT22;20084;47.912;19.044;2024-03-23T08:35:14;13.00;99.90
33761;DHT22;20084;47.912;19.044;2024-03-23T08:37:39;13.10;99.90
33761;DHT22;20084;47.912;19.044;2024-03-23T08:40:05;13.20;99.90
33761;DHT22;20084;47.912;19.044;2024-03-23T08:42:31;13.20;99.90
33761;DHT22;20084;47.912;19.044;2024-03-23T08:44:57;13.30;99.90
33761;DHT22;20084;47.912;19.044;2024-03-23T08:47:23;13.40;99.90
33761;DHT22;20084;47.912;19.044;2024-03-23T08:49:48;13.50;99.90
33761;DHT22;20084;47.912;19.044;2024-03-23T08:52:15;13.60;99.90
33761;DHT22;20084;47.912;19.044;2024-03-23T08:54:40;13.60;99.90
33761;DHT22;20084;47.912;19.044;2024-03-23T08:57:06;13.60;99.90
33761;DHT22;20084;47.912;19.044;2024-03-23T08:59:32;13.60;99.90
33761;DHT22;20084;47.912;19.044;2024-03-23T09:01:58;13.60;99.90
33761;DHT22;20084;47.912;19.044;2024-03-23T09:04:24;13.70;99.90
33761;DHT22;20084;47.912;19.044;2024-03-23T09:06:49;13.80;99.90
33761;DHT22;20084;47.912;19.044;2024-03-23T09:09:15;13.80;99.90
33761;DHT22;20084;47.912;19.044;2024-03-23T09:11:41;13.80;99.90
33761;DHT22;20084;47.912;19.044;2024-03-23T09:14:07;13.90;99.90
33761;DHT22;20084;47.912;19.044;2024-03-23T09:16:33;13.90;99.90
33761;DHT22;20084;47.912;19.044;2024-03-23T09:18:58;14.00;99.90
33761;DHT22;20084;47.912;19.044;2024-03-23T09:21:24;14.10;99.90
33761;DHT22;20084;47.912;19.044;2024-03-23T09:23:49;14.20;99.90
33761;DHT22;20084;47.912;19.044;2024-03-23T09:26:15;14.30;99.90
33761;DHT22;20084;47.912;19.044;2024-03-23T09:28:41;14.30;99.90
33761;DHT22;20084;47.912;19.044;2024-03-23T09:31:07;14.40;99.90
33761;DHT22;20084;47.912;19.044;2024-03-23T09:33:34;14.40;99.90
33761;DHT22;20084;47.912;19.044;2024-03-23T09:36:04;14.50;99.90
33761;DHT22;20084;47.912;19.044;2024-03-23T09:38:29;14.60;99.90
33761;DHT22;20084;47.912;19.044;2024-03-23T09:40:56;14.70;99.90
33761;DHT22;20084;47.912;19.044;2024-03-23T09:43:22;14.70;99.90
33761;DHT22;20084;47.912;19.044;2024-03-23T09:45:49;14.80;99.90
33761;DHT22;20084;47.912;19.044;2024-03-23T09:48:15;14.90;99.90
33761;DHT22;20084;47.912;19.044;2024-03-23T09:50:43;14.90;99.90
33761;DHT22;20084;47.912;19.044;2024-03-23T09:53:11;15.00;99.90
33761;DHT22;20084;47.912;19.044;2024-03-23T09:55:41;15.00;99.90
33761;DHT22;20084;47.912;19.044;2024-03-23T09:58:06;15.10;99.90
33761;DHT22;20084;47.912;19.044;2024-03-23T10:00:33;15.10;99.90
33761;DHT22;20084;47.912;19.044;2024-03-23T10:02:59;15.20;99.90
33761;DHT22;20084;47.912;19.044;2024-03-23T10:05:28;15.20;99.90
33761;DHT22;20084;47.912;19.044;2024-03-23T10:07:53;15.30;99.90
33761;DHT22;20084;47.912;19.044;2024-03-23T10:10:19;15.30;99.90
33761;DHT22;20084;47.912;19.044;2024-03-23T10:12:48;15.40;99.90
33761;DHT22;20084;47.912;19.044;2024-03-23T10:15:22;15.50;99.90
33761;DHT22;20084;47.912;19.044;2024-03-23T10:17:48;15.50;99.90
33761;DHT22;20084;47.912;19.044;2024-03-23T10:20:19;15.50;99.90
33761;DHT22;20084;47.912;19.044;2024-03-23T10:22:45;15.50;99.90
33761;DHT22;20084;47.912;19.044;2024-03-23T10:25:11;15.60;99.90
33761;DHT22;20084;47.912;19.044;2024-03-23T10:27:39;15.70;99.90
33761;DHT22;20084;47.912;19.044;2024-03-23T10:30:14;15.70;99.90
33761;DHT22;20084;47.912;19.044;2024-03-23T10:32:40;15.80;99.90
33761;DHT22;20084;47.912;19.044;2024-03-23T10:35:18;15.80;99.90
33761;DHT22;20084;47.912;19.044;2024-03-23T10:37:45;15.80;99.90
33761;DHT22;20084;47.912;19.044;2024-03-23T10:40:12;15.90;99.90
33761;DHT22;20084;47.912;19.044;2024-03-23T10:42:38;15.90;99.90
33761;DHT22;20084;47.912;19.044;2024-03-23T10:45:05;16.00;99.90
33761;DHT22;20084;47.912;19.044;2024-03-23T10:47:35;16.00;99.90
33761;DHT22;20084;47.912;19.044;2024-03-23T10:50:02;16.00;99.90
33761;DHT22;20084;47.912;19.044;2024-03-23T10:52:28;16.00;99.90
33761;DHT22;20084;47.912;19.044;2024-03-23T10:54:55;16.10;99.90
33761;DHT22;20084;47.912;19.044;2024-03-23T10:57:29;16.10;99.90
33761;DHT22;20084;47.912;19.044;2024-03-23T10:59:57;16.10;99.90
33761;DHT22;20084;47.912;19.044;2024-03-23T11:02:23;16.10;99.90
33761;DHT22;20084;47.912;19.044;2024-03-23T11:04:48;16.20;99.90
33761;DHT22;20084;47.912;19.044;2024-03-23T11:09:52;16.20;99.90
33761;DHT22;20084;47.912;19.044;2024-03-23T11:15:11;16.30;99.90
33761;DHT22;20084;47.912;19.044;2024-03-23T11:17:36;16.30;99.90
33761;DHT22;20084;47.912;19.044;2024-03-23T11:20:03;16.30;99.90
33761;DHT22;20084;47.912;19.044;2024-03-23T11:22:44;16.30;99.90
33761;DHT22;20084;47.912;19.044;2024-03-23T11:25:23;16.40;99.90
33761;DHT22;20084;47.912;19.044;2024-03-23T11:28:10;16.40;99.90
33761;DHT22;20084;47.912;19.044;2024-03-23T11:30:36;16.50;99.90
33761;DHT22;20084;47.912;19.044;2024-03-23T11:33:03;16.50;99.90
33761;DHT22;20084;47.912;19.044;2024-03-23T11:35:31;16.60;99.90
33761;DHT22;20084;47.912;19.044;2024-03-23T11:40:34;16.70;99.90
33761;DHT22;20084;47.912;19.044;2024-03-23T11:43:05;16.80;99.90
33761;DHT22;20084;47.912;19.044;2024-03-23T11:45:45;16.80;99.90
33761;DHT22;20084;47.912;19.044;2024-03-23T11:48:16;16.80;99.90
33761;DHT22;20084;47.912;19.044;2024-03-23T11:50:54;16.90;99.90
33761;DHT22;20084;47.912;19.044;2024-03-23T11:53:22;16.90;99.90
33761;DHT22;20084;47.912;19.044;2024-03-23T11:55:56;16.90;99.90
33761;DHT22;20084;47.912;19.044;2024-03-23T11:58:23;16.90;99.90
33761;DHT22;20084;47.912;19.044;2024-03-23T12:01:03;16.90;99.90
33761;DHT22;20084;47.912;19.044;2024-03-23T12:03:30;16.90;99.90
33761;DHT22;20084;47.912;19.044;2024-03-23T12:06:03;16.90;99.90
33761;DHT22;20084;47.912;19.044;2024-03-23T12:08:32;16.90;99.90
33761;DHT22;20084;47.912;19.044;2024-03-23T12:11:06;17.00;99.90
33761;DHT22;20084;47.912;19.044;2024-03-23T12:13:32;17.00;99.90
33761;DHT22;20084;47.912;19.044;2024-03-23T12:16:19;17.00;99.90
33761;DHT22;20084;47.912;19.044;2024-03-23T12:18:47;17.00;99.90
33761;DHT22;20084;47.912;19.044;2024-03-23T12:21:13;17.10;99.90
33761;DHT22;20084;47.912;19.044;2024-03-23T12:23:39;17.10;99.90
33761;DHT22;20084;47.912;19.044;2024-03-23T12:26:05;17.00;99.90
33761;DHT22;20084;47.912;19.044;2024-03-23T12:28:32;17.10;99.90
33761;DHT22;20084;47.912;19.044;2024-03-23T12:30:57;17.10;99.90
33761;DHT22;20084;47.912;19.044;2024-03-23T12:33:23;17.10;99.90
33761;DHT22;20084;47.912;19.044;2024-03-23T12:35:50;17.10;99.90
33761;DHT22;20084;47.912;19.044;2024-03-23T12:38:15;17.10;99.90
33761;DHT22;20084;47.912;19.044;2024-03-23T12:40:41;17.10;99.90
33761;DHT22;20084;47.912;19.044;2024-03-23T12:43:07;17.10;99.90
33761;DHT22;20084;47.912;19.044;2024-03-23T12:45:33;17.10;99.90
33761;DHT22;20084;47.912;19.044;2024-03-23T12:47:59;17.10;99.90
33761;DHT22;20084;47.912;19.044;2024-03-23T12:50:24;17.20;99.90
33761;DHT22;20084;47.912;19.044;2024-03-23T12:52:50;17.20;99.70
33761;DHT22;20084;47.912;19.044;2024-03-23T12:55:16;17.20;99.70
33761;DHT22;20084;47.912;19.044;2024-03-23T12:57:43;17.20;98.50
33761;DHT22;20084;47.912;19.044;2024-03-23T13:00:09;17.20;98.80
33761;DHT22;20084;47.912;19.044;2024-03-23T13:02:38;17.20;99.00
33761;DHT22;20084;47.912;19.044;2024-03-23T13:05:05;17.30;99.10
33761;DHT22;20084;47.912;19.044;2024-03-23T13:07:30;17.30;99.00
33761;DHT22;20084;47.912;19.044;2024-03-23T13:09:56;17.30;99.20
33761;DHT22;20084;47.912;19.044;2024-03-23T13:12:22;17.30;98.60
33761;DHT22;20084;47.912;19.044;2024-03-23T13:14:48;17.40;97.60
33761;DHT22;20084;47.912;19.044;2024-03-23T13:17:14;17.40;97.90
33761;DHT22;20084;47.912;19.044;2024-03-23T13:19:40;17.40;98.30
33761;DHT22;20084;47.912;19.044;2024-03-23T13:22:06;17.40;97.90
33761;DHT22;20084;47.912;19.044;2024-03-23T13:24:32;17.40;97.90
33761;DHT22;20084;47.912;19.044;2024-03-23T13:26:58;17.40;98.10
33761;DHT22;20084;47.912;19.044;2024-03-23T13:29:24;17.50;97.80
33761;DHT22;20084;47.912;19.044;2024-03-23T13:31:51;17.50;97.60
33761;DHT22;20084;47.912;19.044;2024-03-23T13:34:17;17.50;98.00
33761;DHT22;20084;47.912;19.044;2024-03-23T13:36:44;17.50;97.40
33761;DHT22;20084;47.912;19.044;2024-03-23T13:39:10;17.60;97.60
33761;DHT22;20084;47.912;19.044;2024-03-23T13:41:40;17.60;97.70
33761;DHT22;20084;47.912;19.044;2024-03-23T13:44:07;17.60;97.40
33761;DHT22;20084;47.912;19.044;2024-03-23T13:46:33;17.60;97.50
33761;DHT22;20084;47.912;19.044;2024-03-23T13:48:59;17.60;97.30
33761;DHT22;20084;47.912;19.044;2024-03-23T13:51:25;17.60;96.70
33761;DHT22;20084;47.912;19.044;2024-03-23T13:53:54;17.70;97.20
33761;DHT22;20084;47.912;19.044;2024-03-23T13:56:22;17.70;96.90
33761;DHT22;20084;47.912;19.044;2024-03-23T13:58:48;17.70;97.30
33761;DHT22;20084;47.912;19.044;2024-03-23T14:01:16;17.70;96.80
33761;DHT22;20084;47.912;19.044;2024-03-23T14:03:45;17.70;97.10
33761;DHT22;20084;47.912;19.044;2024-03-23T14:06:11;17.70;96.50
33761;DHT22;20084;47.912;19.044;2024-03-23T14:08:37;17.70;97.10
33761;DHT22;20084;47.912;19.044;2024-03-23T14:11:05;17.70;96.20
33761;DHT22;20084;47.912;19.044;2024-03-23T14:13:31;17.70;95.80
33761;DHT22;20084;47.912;19.044;2024-03-23T14:15:57;17.70;96.00
33761;DHT22;20084;47.912;19.044;2024-03-23T14:18:23;17.70;96.30
33761;DHT22;20084;47.912;19.044;2024-03-23T14:20:49;17.70;96.00
33761;DHT22;20084;47.912;19.044;2024-03-23T14:23:15;17.70;95.90
33761;DHT22;20084;47.912;19.044;2024-03-23T14:25:41;17.70;95.30
33761;DHT22;20084;47.912;19.044;2024-03-23T14:28:07;17.70;95.40
33761;DHT22;20084;47.912;19.044;2024-03-23T14:30:39;17.70;94.80
33761;DHT22;20084;47.912;19.044;2024-03-23T14:33:05;17.70;94.90
33761;DHT22;20084;47.912;19.044;2024-03-23T14:35:30;17.70;95.00
33761;DHT22;20084;47.912;19.044;2024-03-23T14:37:58;17.70;95.00
33761;DHT22;20084;47.912;19.044;2024-03-23T14:40:24;17.80;95.40
33761;DHT22;20084;47.912;19.044;2024-03-23T14:42:53;17.80;94.60
33761;DHT22;20084;47.912;19.044;2024-03-23T14:45:20;17.80;93.50
33761;DHT22;20084;47.912;19.044;2024-03-23T14:47:46;17.70;93.90
33761;DHT22;20084;47.912;19.044;2024-03-23T14:50:12;17.80;94.10
33761;DHT22;20084;47.912;19.044;2024-03-23T14:52:41;17.80;93.60
33761;DHT22;20084;47.912;19.044;2024-03-23T14:55:07;17.80;93.80
33761;DHT22;20084;47.912;19.044;2024-03-23T14:57:34;17.80;94.10
33761;DHT22;20084;47.912;19.044;2024-03-23T15:00:00;17.70;94.10
33761;DHT22;20084;47.912;19.044;2024-03-23T15:02:26;17.70;94.30
33761;DHT22;20084;47.912;19.044;2024-03-23T15:04:53;17.70;94.10
33761;DHT22;20084;47.912;19.044;2024-03-23T15:07:19;17.70;94.40
33761;DHT22;20084;47.912;19.044;2024-03-23T15:09:45;17.70;94.70
33761;DHT22;20084;47.912;19.044;2024-03-23T15:12:11;17.70;93.70
33761;DHT22;20084;47.912;19.044;2024-03-23T15:14:37;17.70;93.80
33761;DHT22;20084;47.912;19.044;2024-03-23T15:17:03;17.60;93.70
33761;DHT22;20084;47.912;19.044;2024-03-23T15:19:32;17.60;92.90
33761;DHT22;20084;47.912;19.044;2024-03-23T15:21:58;17.60;92.60
33761;DHT22;20084;47.912;19.044;2024-03-23T15:24:24;17.60;92.50
33761;DHT22;20084;47.912;19.044;2024-03-23T15:26:50;17.60;93.40
33761;DHT22;20084;47.912;19.044;2024-03-23T15:29:17;17.60;93.10
33761;DHT22;20084;47.912;19.044;2024-03-23T15:31:43;17.50;93.60
33761;DHT22;20084;47.912;19.044;2024-03-23T15:34:09;17.50;93.90
33761;DHT22;20084;47.912;19.044;2024-03-23T15:36:38;17.50;93.60
33761;DHT22;20084;47.912;19.044;2024-03-23T15:39:06;17.50;93.80
33761;DHT22;20084;47.912;19.044;2024-03-23T15:41:32;17.50;94.00
33761;DHT22;20084;47.912;19.044;2024-03-23T15:43:59;17.50;94.80
33761;DHT22;20084;47.912;19.044;2024-03-23T15:46:25;17.40;94.10
33761;DHT22;20084;47.912;19.044;2024-03-23T15:48:51;17.40;94.70
33761;DHT22;20084;47.912;19.044;2024-03-23T15:51:16;17.40;94.00
33761;DHT22;20084;47.912;19.044;2024-03-23T15:53:43;17.40;93.60
33761;DHT22;20084;47.912;19.044;2024-03-23T15:56:09;17.30;93.80
33761;DHT22;20084;47.912;19.044;2024-03-23T15:58:35;17.40;93.50
33761;DHT22;20084;47.912;19.044;2024-03-23T16:03:32;17.40;94.00
33761;DHT22;20084;47.912;19.044;2024-03-23T16:06:03;17.40;94.40
33761;DHT22;20084;47.912;19.044;2024-03-23T16:08:29;17.40;94.70
33761;DHT22;20084;47.912;19.044;2024-03-23T16:11:03;17.40;94.70
33761;DHT22;20084;47.912;19.044;2024-03-23T16:13:29;17.40;94.20
33761;DHT22;20084;47.912;19.044;2024-03-23T16:18:22;17.20;93.60
33761;DHT22;20084;47.912;19.044;2024-03-23T16:20:59;17.20;93.60
33761;DHT22;20084;47.912;19.044;2024-03-23T16:23:25;17.10;93.50